createdAt,value
2022-09-07T00:00:40.313Z,1.80
2022-09-07T00:03:07.136Z,1.30
2022-09-07T00:05:34.190Z,1.40
2022-09-07T00:08:00.934Z,1.75
2022-09-07T00:10:27.555Z,1.50
2022-09-07T00:12:54.134Z,1.70
2022-09-07T00:15:20.718Z,1.58
2022-09-07T00:17:47.265Z,2.20
2022-09-07T00:20:15.037Z,1.80
2022-09-07T00:22:41.805Z,1.70
2022-09-07T00:25:08.785Z,1.85
2022-09-07T00:27:35.336Z,2.13
2022-09-07T00:30:02.014Z,1.77
2022-09-07T00:32:28.636Z,2.22
2022-09-07T00:34:55.231Z,1.95
2022-09-07T00:37:21.837Z,1.90
2022-09-07T00:39:49.465Z,1.88
2022-09-07T00:42:18.759Z,1.60
2022-09-07T00:45:20.722Z,2.10
2022-09-07T00:48:02.495Z,3.00
2022-09-07T00:50:39.313Z,2.50
2022-09-07T00:53:12.694Z,3.10
2022-09-07T00:55:42.512Z,2.83
2022-09-07T00:58:09.833Z,3.03
2022-09-07T01:00:36.945Z,3.17
2022-09-07T01:03:05.464Z,3.08
2022-09-07T01:05:42.771Z,2.92
2022-09-07T01:08:12.107Z,3.00
2022-09-07T01:10:39.187Z,3.05
2022-09-07T01:13:06.423Z,2.90
2022-09-07T01:16:05.299Z,2.97
2022-09-07T01:18:50.037Z,2.80
2022-09-07T01:21:38.482Z,3.40
2022-09-07T01:24:29.871Z,2.55
2022-09-07T01:27:11.884Z,2.70
2022-09-07T01:29:41.546Z,3.50
2022-09-07T01:32:35.874Z,3.72
2022-09-07T01:35:08.783Z,3.58
2022-09-07T01:37:48.014Z,4.22
2022-09-07T01:40:23.609Z,3.88
2022-09-07T01:43:13.518Z,4.05
2022-09-07T01:45:43.682Z,4.22
2022-09-07T01:48:15.361Z,5.15
2022-09-07T01:50:56.069Z,5.45
2022-09-07T01:53:38.029Z,5.60
2022-09-07T01:56:12.477Z,4.90
2022-09-07T01:58:39.039Z,5.25
2022-09-07T02:01:24.591Z,4.78
2022-09-07T02:04:00.870Z,4.68
2022-09-07T02:06:43.607Z,5.57
2022-09-07T02:09:25.583Z,5.68
2022-09-07T02:11:53.570Z,5.25
2022-09-07T02:14:34.381Z,5.50
2022-09-07T02:17:09.790Z,6.03
2022-09-07T02:19:44.393Z,5.50
2022-09-07T02:22:18.534Z,5.40
2022-09-07T02:24:50.762Z,6.20
2022-09-07T02:27:24.303Z,6.57
2022-09-07T02:29:52.117Z,6.35
2022-09-07T02:32:19.013Z,7.82
2022-09-07T02:34:46.241Z,9.10
2022-09-07T02:37:15.457Z,9.70
2022-09-07T02:39:42.084Z,11.00
2022-09-07T02:42:09.330Z,10.98
2022-09-07T02:44:39.586Z,12.65
2022-09-07T02:47:24.924Z,13.23
2022-09-07T02:50:10.180Z,11.35
2022-09-07T02:53:04.329Z,11.27
2022-09-07T02:56:26.507Z,10.52
2022-09-07T02:59:23.768Z,12.73
2022-09-07T03:02:02.124Z,12.88
2022-09-07T03:04:48.121Z,16.58
2022-09-07T03:07:35.672Z,16.20
2022-09-07T03:10:06.025Z,15.75
2022-09-07T03:12:47.264Z,16.25
2022-09-07T03:15:20.220Z,15.38
2022-09-07T03:17:47.175Z,14.88
2022-09-07T03:20:14.494Z,13.57
2022-09-07T03:22:41.125Z,13.63
2022-09-07T03:25:08.098Z,13.65
2022-09-07T03:27:34.795Z,13.13
2022-09-07T03:30:02.165Z,13.32
2022-09-07T03:32:33.517Z,12.05
2022-09-07T03:35:00.675Z,13.45
2022-09-07T03:37:27.734Z,12.07
2022-09-07T03:39:54.433Z,11.95
2022-09-07T03:42:21.165Z,12.85
2022-09-07T03:44:51.039Z,13.55
2022-09-07T03:47:18.238Z,13.20
2022-09-07T03:49:44.913Z,12.02
2022-09-07T03:52:11.808Z,13.55
2022-09-07T03:54:39.733Z,12.40
2022-09-07T03:57:06.582Z,13.25
2022-09-07T03:59:33.377Z,12.00
2022-09-07T04:02:00.165Z,11.55
2022-09-07T04:04:26.859Z,10.32
2022-09-07T04:06:53.423Z,10.15
2022-09-07T04:09:20.093Z,11.52
2022-09-07T04:11:46.881Z,11.63
2022-09-07T04:14:13.476Z,13.05
2022-09-07T04:16:40.436Z,13.93
2022-09-07T04:19:07.077Z,13.60
2022-09-07T04:21:34.722Z,13.18
2022-09-07T04:24:01.436Z,13.07
2022-09-07T04:26:30.835Z,13.32
2022-09-07T04:28:58.600Z,14.43
2022-09-07T04:31:25.679Z,13.75
2022-09-07T04:33:52.953Z,14.25
2022-09-07T04:36:20.820Z,13.95
2022-09-07T04:38:54.058Z,13.35
2022-09-07T04:41:20.640Z,14.05
2022-09-07T04:43:48.132Z,13.48
2022-09-07T04:46:29.766Z,14.35
2022-09-07T04:49:01.630Z,14.23
2022-09-07T04:51:30.733Z,13.77
2022-09-07T04:53:59.524Z,14.00
2022-09-07T04:56:26.602Z,13.38
2022-09-07T04:58:53.466Z,14.05
2022-09-07T05:01:23.279Z,13.98
2022-09-07T05:03:50.315Z,14.60
2022-09-07T05:06:19.095Z,13.95
2022-09-07T05:08:48.541Z,12.60
2022-09-07T05:11:16.343Z,11.80
2022-09-07T05:13:43.390Z,13.13
2022-09-07T05:16:18.274Z,13.05
2022-09-07T05:18:48.873Z,13.57
2022-09-07T05:21:18.005Z,11.88
2022-09-07T05:23:44.660Z,12.65
2022-09-07T05:26:12.339Z,12.98
2022-09-07T05:28:41.118Z,13.90
2022-09-07T05:36:39.177Z,15.38
2022-09-07T05:39:06.880Z,13.57
2022-09-07T05:41:33.856Z,13.25
2022-09-07T05:46:47.056Z,11.38
2022-09-07T05:49:13.651Z,12.75
2022-09-07T05:51:41.063Z,12.73
2022-09-07T05:54:07.719Z,10.98
2022-09-07T05:56:36.015Z,11.88
2022-09-07T05:59:03.237Z,11.38
2022-09-07T06:01:30.082Z,11.52
2022-09-07T06:03:56.815Z,11.10
2022-09-07T06:06:23.566Z,10.10
2022-09-07T06:08:52.351Z,9.98
2022-09-07T06:11:21.611Z,9.80
2022-09-07T06:13:48.334Z,9.10
2022-09-07T06:16:16.510Z,8.63
2022-09-07T06:18:45.848Z,8.70
2022-09-07T06:21:16.322Z,9.40
2022-09-07T06:23:43.955Z,8.98
2022-09-07T06:26:11.877Z,10.68
2022-09-07T06:28:41.310Z,10.45
2022-09-07T06:31:13.629Z,10.85
2022-09-07T06:33:41.910Z,8.18
2022-09-07T06:36:14.061Z,8.88
2022-09-07T06:38:41.189Z,8.93
2022-09-07T06:43:58.534Z,7.85
2022-09-07T06:49:13.366Z,8.10
2022-09-07T06:51:39.985Z,8.82
2022-09-07T06:56:53.364Z,7.43
2022-09-07T06:59:19.978Z,8.40
2022-09-07T07:01:46.643Z,7.40
2022-09-07T07:04:14.038Z,6.60
2022-09-07T07:06:40.681Z,8.60
2022-09-07T07:09:12.091Z,7.25
2022-09-07T07:11:38.748Z,7.60
2022-09-07T07:14:05.390Z,7.40
2022-09-07T07:16:32.088Z,7.18
2022-09-07T07:18:58.744Z,7.25
2022-09-07T07:21:25.385Z,6.32
2022-09-07T07:23:52.868Z,7.50
2022-09-07T07:26:22.197Z,6.93
2022-09-07T07:29:06.300Z,6.32
2022-09-07T07:31:33.726Z,6.00
2022-09-07T07:34:00.393Z,6.32
2022-09-07T07:36:27.289Z,6.63
2022-09-07T07:38:59.373Z,6.60
2022-09-07T07:44:18.537Z,6.90
2022-09-07T07:46:48.318Z,7.32
2022-09-07T07:49:14.894Z,8.18
2022-09-07T07:54:28.099Z,7.32
2022-09-07T07:56:54.658Z,7.32
2022-09-07T07:59:21.180Z,7.82
2022-09-07T08:01:47.817Z,7.03
2022-09-07T08:04:14.448Z,7.20
2022-09-07T08:06:44.034Z,6.15
2022-09-07T08:09:11.927Z,7.20
2022-09-07T08:11:40.198Z,5.00
2022-09-07T08:14:08.530Z,4.93
2022-09-07T08:16:36.236Z,6.38
2022-09-07T08:19:03.414Z,3.40
2022-09-07T08:21:29.932Z,3.95
2022-09-07T08:23:56.409Z,3.88
2022-09-07T08:26:22.888Z,3.22
2022-09-07T08:28:49.415Z,3.15
2022-09-07T08:31:17.108Z,3.47
2022-09-07T08:33:44.139Z,2.78
2022-09-07T08:36:13.061Z,3.67
2022-09-07T08:38:40.124Z,4.55
2022-09-07T08:41:27.659Z,2.60
2022-09-07T08:44:05.412Z,3.25
2022-09-07T08:46:46.735Z,2.83
2022-09-07T08:49:18.779Z,2.42
2022-09-07T08:51:55.427Z,2.80
2022-09-07T08:54:22.098Z,2.90
2022-09-07T09:00:08.627Z,2.83
2022-09-07T09:05:35.877Z,2.65
2022-09-07T09:06:11.268Z,3.20
2022-09-07T09:08:33.475Z,2.40
2022-09-07T09:11:10.418Z,2.92
2022-09-07T09:13:55.290Z,3.08
2022-09-07T09:16:29.593Z,2.05
2022-09-07T09:19:18.003Z,2.63
2022-09-07T09:21:45.054Z,2.80
2022-09-07T09:24:18.999Z,2.22
2022-09-07T09:26:53.080Z,2.35
2022-09-07T09:29:22.136Z,2.60
2022-09-07T09:31:48.820Z,2.70
2022-09-07T09:34:23.864Z,2.15
2022-09-07T09:36:55.837Z,2.20
2022-09-07T09:39:34.046Z,2.47
2022-09-07T09:42:23.574Z,1.98
2022-09-07T09:44:50.849Z,2.30
2022-09-07T09:47:36.021Z,1.98
2022-09-07T09:52:29.302Z,2.60
2022-09-07T09:53:04.379Z,2.50
2022-09-07T09:55:36.982Z,2.15
2022-09-07T10:01:26.881Z,1.90
2022-09-07T10:06:25.433Z,2.40
2022-09-07T10:08:57.928Z,2.28
2022-09-07T10:14:34.145Z,2.70
2022-09-07T10:17:02.115Z,2.58
2022-09-07T10:19:34.460Z,2.90
2022-09-07T10:22:04.069Z,2.60
2022-09-07T10:24:38.975Z,3.70
2022-09-07T10:27:33.190Z,3.20
2022-09-07T10:30:01.055Z,2.30
2022-09-07T10:32:42.856Z,2.60
2022-09-07T10:35:33.205Z,2.85
2022-09-07T10:38:19.334Z,2.05
2022-09-07T10:40:54.162Z,2.17
2022-09-07T10:43:43.605Z,2.28
2022-09-07T10:49:35.917Z,2.50
2022-09-07T10:52:23.133Z,2.50
2022-09-07T10:54:55.627Z,2.67
2022-09-07T10:57:28.511Z,2.35
2022-09-07T11:00:12.716Z,2.30
2022-09-07T11:03:29.036Z,2.67
2022-09-07T11:06:20.075Z,2.85
2022-09-07T11:09:24.062Z,2.85
2022-09-07T11:12:14.460Z,2.63
2022-09-07T11:14:53.217Z,3.05
2022-09-07T11:17:26.464Z,3.08
2022-09-07T11:20:01.112Z,3.03
2022-09-07T11:22:41.405Z,3.15
2022-09-07T11:25:33.862Z,3.53
2022-09-07T11:28:20.892Z,3.30
2022-09-07T11:31:00.452Z,2.92
2022-09-07T11:36:46.184Z,3.22
2022-09-07T11:39:26.712Z,3.35
2022-09-07T11:45:15.877Z,3.58
2022-09-07T11:47:52.495Z,2.90
2022-09-07T11:50:23.052Z,3.67
2022-09-07T11:52:54.840Z,3.17
2022-09-07T11:55:36.739Z,3.50
2022-09-07T11:58:44.940Z,3.40
2022-09-07T12:01:39.400Z,3.20
2022-09-07T12:04:35.786Z,3.40
2022-09-07T12:07:34.713Z,3.40
2022-09-07T12:10:07.482Z,3.70
2022-09-07T12:12:56.573Z,3.40
2022-09-07T12:15:44.461Z,2.70
2022-09-07T12:18:26.644Z,2.75
2022-09-07T12:20:53.228Z,2.42
2022-09-07T12:23:27.752Z,2.97
2022-09-07T12:26:32.641Z,2.30
2022-09-07T12:28:59.051Z,1.80
2022-09-07T12:31:58.753Z,2.22
2022-09-07T12:34:32.063Z,1.88
2022-09-07T12:37:00.136Z,1.67
2022-09-07T12:39:30.589Z,1.60
2022-09-07T12:45:30.452Z,1.85
2022-09-07T12:47:59.347Z,1.42
2022-09-07T12:50:38.239Z,1.60
2022-09-07T12:53:12.640Z,1.30
2022-09-07T12:56:16.528Z,1.70
2022-09-07T12:58:49.256Z,1.48
2022-09-07T13:01:36.458Z,1.08
2022-09-07T13:04:08.836Z,0.88
2022-09-07T13:07:02.026Z,1.25
2022-09-07T13:09:41.307Z,0.95
2022-09-07T13:12:55.300Z,1.15
2022-09-07T13:15:41.925Z,0.95
2022-09-07T13:18:34.354Z,1.02
2022-09-07T13:21:06.959Z,1.00
2022-09-07T13:23:34.798Z,1.30
2022-09-07T13:26:03.436Z,0.73
2022-09-07T13:28:52.427Z,0.88
2022-09-07T13:31:46.213Z,1.15
2022-09-07T13:34:43.813Z,0.95
2022-09-07T13:37:18.122Z,1.10
2022-09-07T13:39:49.406Z,1.15
2022-09-07T13:42:23.563Z,0.82
2022-09-07T13:44:55.613Z,0.73
2022-09-07T13:47:31.348Z,1.15
2022-09-07T13:50:11.695Z,0.82
2022-09-07T13:53:06.030Z,0.90
2022-09-07T13:55:56.118Z,0.98
2022-09-07T13:58:34.087Z,0.70
2022-09-07T14:01:12.966Z,1.60
2022-09-07T14:03:48.025Z,0.70
2022-09-07T14:06:25.498Z,0.90
2022-09-07T14:08:55.229Z,0.68
2022-09-07T14:11:39.869Z,0.60
2022-09-07T14:14:16.722Z,0.73
2022-09-07T14:16:46.813Z,0.75
2022-09-07T14:19:19.368Z,0.80
2022-09-07T14:21:57.890Z,0.80
2022-09-07T14:24:40.132Z,0.90
2022-09-07T14:27:21.129Z,1.33
2022-09-07T14:29:47.823Z,0.73
2022-09-07T14:32:22.137Z,0.90
2022-09-07T14:34:49.918Z,0.93
2022-09-07T14:37:19.518Z,0.93
2022-09-07T14:39:50.733Z,1.15
2022-09-07T14:42:23.123Z,0.82
2022-09-07T14:44:50.194Z,0.93
2022-09-07T14:47:30.506Z,1.48
2022-09-07T14:50:05.667Z,0.88
2022-09-07T14:52:42.492Z,0.60
2022-09-07T14:55:31.906Z,0.80
2022-09-07T14:58:22.106Z,1.23
2022-09-07T15:04:01.838Z,1.25
2022-09-07T15:09:50.900Z,1.60
2022-09-07T15:12:27.177Z,0.75
2022-09-07T15:15:10.572Z,1.13
2022-09-07T15:17:44.809Z,1.15
2022-09-07T15:20:36.640Z,1.00
2022-09-07T15:23:05.528Z,0.95
2022-09-07T15:25:32.812Z,1.00
2022-09-07T15:28:00.300Z,1.10
2022-09-07T15:30:27.320Z,1.92
2022-09-07T15:32:56.885Z,1.15
2022-09-07T15:35:23.765Z,1.15
2022-09-07T15:38:58.949Z,1.00
2022-09-07T15:41:03.768Z,0.80
2022-09-07T15:43:29.593Z,1.40
2022-09-07T15:45:56.253Z,1.10
2022-09-07T15:48:26.673Z,1.85
2022-09-07T15:52:04.520Z,0.82
2022-09-07T15:54:12.744Z,0.98
2022-09-07T15:56:39.495Z,1.83
2022-09-07T15:59:06.339Z,0.75
2022-09-07T16:04:19.423Z,0.95
2022-09-07T16:06:48.187Z,0.75
2022-09-07T16:09:16.161Z,1.10
2022-09-07T16:11:42.648Z,0.70
2022-09-07T16:14:12.277Z,1.75
2022-09-07T16:19:25.225Z,1.15
2022-09-07T16:21:51.797Z,0.90
2022-09-07T16:24:18.311Z,1.00
2022-09-07T16:26:44.901Z,0.90
2022-09-07T16:29:11.404Z,0.75
2022-09-07T16:31:38.407Z,0.70
2022-09-07T16:34:05.034Z,1.00
2022-09-07T16:36:31.999Z,4.68
2022-09-07T16:39:00.776Z,1.33
2022-09-07T16:41:31.286Z,0.98
2022-09-07T16:43:58.653Z,0.80
2022-09-07T16:46:27.795Z,1.30
2022-09-07T16:48:55.099Z,0.90
2022-09-07T16:51:23.685Z,0.77
2022-09-07T16:53:52.981Z,1.73
2022-09-07T16:56:23.525Z,1.23
2022-09-07T16:58:59.088Z,0.88
2022-09-07T17:03:54.240Z,0.80
2022-09-07T17:06:23.726Z,1.77
2022-09-07T17:08:50.701Z,0.85
2022-09-07T17:11:21.941Z,0.90
2022-09-07T17:13:49.241Z,1.15
2022-09-07T17:16:19.827Z,1.48
2022-09-07T17:21:36.962Z,1.00
2022-09-07T17:24:05.137Z,0.85
2022-09-07T17:26:32.633Z,0.82
2022-09-07T17:29:01.120Z,1.35
2022-09-07T17:34:19.835Z,0.93
2022-09-07T17:36:46.994Z,1.02
2022-09-07T17:39:15.030Z,1.48
2022-09-07T17:41:42.812Z,0.95
2022-09-07T17:44:09.340Z,0.85
2022-09-07T17:46:36.206Z,0.80
2022-09-07T17:49:03.533Z,0.68
2022-09-07T17:51:32.716Z,0.90
2022-09-07T17:54:02.647Z,2.35
2022-09-07T17:56:29.618Z,1.02
2022-09-07T18:00:10.603Z,0.80
2022-09-07T18:01:43.304Z,0.90
2022-09-07T18:04:10.955Z,1.05
2022-09-07T18:06:37.737Z,0.88
2022-09-07T18:09:05.303Z,0.70
2022-09-07T18:11:49.422Z,1.00
2022-09-07T18:14:16.662Z,2.08
2022-09-07T18:16:45.429Z,1.58
2022-09-07T18:19:12.574Z,1.83
2022-09-07T18:21:42.907Z,1.30
2022-09-07T18:24:16.741Z,1.23
2022-09-07T18:26:43.871Z,0.77
2022-09-07T18:29:27.403Z,1.10
2022-09-07T18:31:55.136Z,1.27
2022-09-07T18:34:22.209Z,1.00
2022-09-07T18:36:49.138Z,1.00
2022-09-07T18:39:15.730Z,1.00
2022-09-07T18:41:42.362Z,1.00
2022-09-07T18:46:55.993Z,1.42
2022-09-07T18:49:22.490Z,1.30
2022-09-07T18:54:35.618Z,1.15
2022-09-07T18:57:02.089Z,1.30
2022-09-07T18:59:29.739Z,1.40
2022-09-07T19:02:01.374Z,1.00
2022-09-07T19:05:49.472Z,1.05
2022-09-07T19:07:16.992Z,1.50
2022-09-07T19:09:43.540Z,1.60
2022-09-07T19:12:10.060Z,1.60
2022-09-07T19:14:36.685Z,1.45
2022-09-07T19:17:03.245Z,1.35
2022-09-07T19:19:29.859Z,1.52
2022-09-07T19:21:57.759Z,1.52
2022-09-07T19:24:25.624Z,1.60
2022-09-07T19:26:55.745Z,1.88
2022-09-07T19:29:25.676Z,1.33
2022-09-07T19:32:05.447Z,1.70
2022-09-07T19:34:37.675Z,2.83
2022-09-07T19:37:06.170Z,3.58
2022-09-07T19:39:32.823Z,2.67
2022-09-07T19:41:59.705Z,2.15
2022-09-07T19:44:26.456Z,1.60
2022-09-07T19:46:53.022Z,1.80
2022-09-07T19:49:19.738Z,1.75
2022-09-07T19:51:46.445Z,2.03
2022-09-07T19:54:13.611Z,1.83
2022-09-07T19:56:42.736Z,1.63
2022-09-07T19:59:09.687Z,1.83
2022-09-07T20:01:38.479Z,1.42
2022-09-07T20:04:07.536Z,1.75
2022-09-07T20:06:37.885Z,2.58
2022-09-07T20:09:05.492Z,2.17
2022-09-07T20:11:34.811Z,2.00
2022-09-07T20:14:01.457Z,2.00
2022-09-07T20:16:28.228Z,1.90
2022-09-07T20:19:03.100Z,1.90
2022-09-07T20:21:39.286Z,1.88
2022-09-07T20:24:06.114Z,2.30
2022-09-07T20:26:32.720Z,2.47
2022-09-07T20:29:16.727Z,2.50
2022-09-07T20:31:46.846Z,2.40
2022-09-07T20:34:14.047Z,2.65
2022-09-07T20:36:40.523Z,1.98
2022-09-07T20:39:07.105Z,2.30
2022-09-07T20:41:34.737Z,2.28
2022-09-07T20:44:03.016Z,2.22
2022-09-07T20:46:31.765Z,2.53
2022-09-07T20:48:58.427Z,1.80
2022-09-07T20:51:25.597Z,2.10
2022-09-07T20:53:52.711Z,1.83
2022-09-07T20:56:25.809Z,2.40
2022-09-07T20:58:57.726Z,2.00
2022-09-07T21:01:24.684Z,2.10
2022-09-07T21:03:53.948Z,1.98
2022-09-07T21:06:22.291Z,2.25
2022-09-07T21:08:50.218Z,2.22
2022-09-07T21:11:22.203Z,2.30
2022-09-07T21:13:58.275Z,2.35
2022-09-07T21:16:25.805Z,2.22
2022-09-07T21:18:55.362Z,2.33
2022-09-07T21:21:23.084Z,2.08
2022-09-07T21:23:55.045Z,1.98
2022-09-07T21:26:21.591Z,2.20
2022-09-07T21:28:48.444Z,2.10
2022-09-07T21:31:14.955Z,1.80
2022-09-07T21:33:41.502Z,2.22
2022-09-07T21:36:10.888Z,2.70
2022-09-07T21:38:38.958Z,2.60
2022-09-07T21:41:10.088Z,2.75
2022-09-07T21:43:37.126Z,2.60
2022-09-07T21:46:31.489Z,2.22
2022-09-07T21:48:59.257Z,2.08
2022-09-07T21:51:26.978Z,3.08
2022-09-07T21:53:57.773Z,1.98
2022-09-07T21:56:25.042Z,2.35
2022-09-07T21:58:55.550Z,2.47
2022-09-07T22:01:23.910Z,2.80
2022-09-07T22:03:56.212Z,2.17
2022-09-07T22:06:23.501Z,2.92
2022-09-07T22:08:50.076Z,3.05
2022-09-07T22:11:19.587Z,2.00
2022-09-07T22:13:46.024Z,2.40
2022-09-07T22:16:13.547Z,3.08
2022-09-07T22:18:43.897Z,2.63
2022-09-07T22:21:14.702Z,2.63
2022-09-07T22:23:45.336Z,3.35
2022-09-07T22:26:13.316Z,3.05
2022-09-07T22:28:40.102Z,2.85
2022-09-07T22:31:22.162Z,2.50
2022-09-07T22:33:50.080Z,2.70
2022-09-07T22:36:22.949Z,2.35
2022-09-07T22:38:52.272Z,2.60
2022-09-07T22:41:21.440Z,3.00
2022-09-07T22:43:50.799Z,2.30
2022-09-07T22:46:18.933Z,2.20
2022-09-07T22:48:45.695Z,2.55
2022-09-07T22:51:12.652Z,3.05
2022-09-07T22:53:41.732Z,2.47
2022-09-07T22:56:18.435Z,2.15
2022-09-07T22:58:50.181Z,2.40
2022-09-07T23:01:17.271Z,2.33
2022-09-07T23:03:45.001Z,2.55
2022-09-07T23:06:22.624Z,2.40
2022-09-07T23:08:51.419Z,2.53
2022-09-07T23:11:18.355Z,2.28
2022-09-07T23:13:45.416Z,2.45
2022-09-07T23:16:12.279Z,3.55
2022-09-07T23:18:40.797Z,2.75
2022-09-07T23:21:08.341Z,2.30
2022-09-07T23:23:35.313Z,2.33
2022-09-07T23:26:03.053Z,2.20
2022-09-07T23:28:30.588Z,2.85
2022-09-07T23:30:57.685Z,2.70
2022-09-07T23:33:26.080Z,1.95
2022-09-07T23:36:02.046Z,2.25
2022-09-07T23:38:29.531Z,2.20
2022-09-07T23:40:57.454Z,2.25
2022-09-07T23:43:27.148Z,1.90
2022-09-07T23:45:54.418Z,1.77
2022-09-07T23:48:21.750Z,2.13
2022-09-07T23:50:48.849Z,2.00
2022-09-07T23:53:16.605Z,1.98
2022-09-07T23:55:43.469Z,2.00
2022-09-07T23:58:10.297Z,2.38
